Bookmark and Share
Track history (hours):
 

Maria

Last reported at 2014-Apr-24 19:33 UTC. Time now 2014-Apr-24 20:10 UTC.
Position N 37°58' E 023°35'.

Length 74 m; draft 4.5 m.

Type: Ship. MMSI: 237493000.

NotesDate/timePositionNaut miles runAvg speedWind from/ knotsBaromVisibWave heightAir tempDewpointWater temp
2014-Apr-24 19:33N 37°58' E 023°35'0 0.0
2014-Apr-24 11:12N 37°58' E 023°35'4 1.0
2014-Apr-24 07:23N 38°01' E 023°35'4 4.6
2014-Apr-24 06:33N 37°58' E 023°35'0 0.0
2014-Apr-23 11:26N 37°58' E 023°35'3 3.0
2014-Apr-23 10:33N 37°56' E 023°37'0 0.0
2014-Apr-23 09:33N 37°56' E 023°37'0 0.0
2014-Apr-23 08:33N 37°56' E 023°37'0 0.0
2014-Apr-23 07:34N 37°56' E 023°37'0 0.0
2014-Apr-23 06:34N 37°56' E 023°37'0 0.2
2014-Apr-23 05:33N 37°56' E 023°37'2 0.2
2014-Apr-22 14:33N 37°58' E 023°35'4 0.8
2014-Apr-22 09:24N 38°02' E 023°36'1 1.0
2014-Apr-22 08:30N 38°01' E 023°35'3 2.4
2014-Apr-22 07:26N 37°59' E 023°33'2 2.4
2014-Apr-22 06:33N 37°58' E 023°35'0 0.0
2014-Apr-21 23:33N 37°58' E 023°35'5 5.4
2014-Apr-21 22:33N 37°53' E 023°31'0 0.0
2014-Apr-21 21:31N 37°53' E 023°31'0 0.1
2014-Apr-21 20:28N 37°53' E 023°31'0 0.1
2014-Apr-21 19:34N 37°53' E 023°31'0 0.0
2014-Apr-21 18:26N 37°53' E 023°31'0 0.0
2014-Apr-21 17:24N 37°53' E 023°31'0 0.0
2014-Apr-21 16:33N 37°53' E 023°31'5 5.2
2014-Apr-21 15:31N 37°58' E 023°35'  
2014-Apr-19 06:33N 37°55' E 023°34'0 0.2
2014-Apr-19 05:33N 37°55' E 023°34'1 1.1
2014-Apr-19 04:33N 37°56' E 023°34'2 0.2
2014-Apr-18 17:30N 37°58' E 023°35'6 5.9
2014-Apr-18 16:33N 37°52' E 023°33'0 0.1
2014-Apr-18 15:33N 37°52' E 023°33'0 0.0
2014-Apr-18 14:33N 37°52' E 023°33'0 0.2
2014-Apr-18 13:32N 37°52' E 023°33'6 5.6
2014-Apr-18 12:32N 37°58' E 023°35'2 0.1
2014-Apr-17 15:34N 37°58' E 023°33'2 0.1
2014-Apr-16 16:20N 37°58' E 023°35'3 4.0
2014-Apr-16 15:32N 37°56' E 023°38'0 0.0
2014-Apr-16 14:33N 37°56' E 023°38'0 0.0
2014-Apr-16 13:33N 37°56' E 023°38'0 0.0
2014-Apr-16 12:31N 37°56' E 023°38'0 0.4
2014-Apr-16 11:33N 37°56' E 023°38'2 1.9
2014-Apr-16 10:33N 37°57' E 023°36'0 0.0
2014-Apr-16 09:33N 37°57' E 023°36'3 0.1
2014-Apr-15 08:33N 37°55' E 023°33'0 0.1
2014-Apr-15 07:34N 37°55' E 023°33'3 3.0
2014-Apr-15 06:34N 37°58' E 023°35'0 0.0
2014-Apr-15 05:34N 37°58' E 023°35'  

Dump ship's entire track history

sailing weather and tide predictions

Maria — SV7156 — position and weather